createdAt,value
2018-04-25T00:02:25.706Z,26.80
2018-04-25T00:05:00.561Z,28.00
2018-04-25T00:07:28.755Z,37.40
2018-04-25T00:09:56.925Z,23.87
2018-04-25T00:12:25.103Z,37.10
2018-04-25T00:14:53.292Z,30.70
2018-04-25T00:17:21.461Z,33.17
2018-04-25T00:19:49.612Z,36.00
2018-04-25T00:22:17.813Z,34.90
2018-04-25T00:24:46.003Z,40.93
2018-04-25T00:27:16.182Z,40.03
2018-04-25T00:29:44.591Z,41.40
2018-04-25T00:32:12.753Z,47.27
2018-04-25T00:34:40.955Z,41.67
2018-04-25T00:37:09.139Z,46.40
2018-04-25T00:39:37.326Z,48.10
2018-04-25T00:42:06.324Z,36.80
2018-04-25T00:44:34.571Z,49.70
2018-04-25T00:47:02.657Z,38.67
2018-04-25T00:49:31.591Z,45.53
2018-04-25T00:51:59.782Z,50.27
2018-04-25T00:54:27.951Z,47.33
2018-04-25T00:56:56.115Z,49.50
2018-04-25T00:59:24.315Z,48.47
2018-04-25T01:01:52.595Z,43.97
2018-04-25T01:04:20.783Z,51.70
2018-04-25T01:06:49.739Z,45.60
2018-04-25T01:09:17.914Z,44.73
2018-04-25T01:11:46.139Z,46.47
2018-04-25T01:14:14.276Z,52.10
2018-04-25T01:16:42.491Z,42.00
2018-04-25T01:19:10.679Z,63.60
2018-04-25T01:21:38.875Z,45.97
2018-04-25T01:24:09.305Z,48.93
2018-04-25T01:26:37.497Z,43.53
2018-04-25T01:29:07.188Z,47.70
2018-04-25T01:31:56.878Z,46.57
2018-04-25T01:34:37.438Z,50.27
2018-04-25T01:37:22.971Z,51.47
2018-04-25T01:39:54.619Z,52.03
2018-04-25T01:48:56.968Z,49.70
2018-04-25T01:51:42.924Z,54.60
2018-04-25T01:54:35.933Z,61.07
2018-04-25T02:03:10.972Z,64.93
2018-04-25T02:05:39.894Z,59.70
2018-04-25T02:08:08.074Z,63.90
2018-04-25T02:10:36.233Z,58.57
2018-04-25T02:13:07.963Z,62.90
2018-04-25T02:15:36.145Z,66.50
2018-04-25T02:18:05.157Z,55.30
2018-04-25T02:20:33.324Z,57.70
2018-04-25T02:23:01.503Z,66.43
2018-04-25T02:25:29.681Z,64.40
2018-04-25T02:27:57.868Z,68.30
2018-04-25T02:30:26.027Z,73.70
2018-04-25T02:32:54.180Z,71.20
2018-04-25T02:35:22.344Z,75.73
2018-04-25T02:38:03.491Z,68.37
2018-04-25T02:40:31.955Z,75.37
2018-04-25T02:43:00.143Z,68.10
2018-04-25T02:45:29.084Z,67.53
2018-04-25T02:47:57.247Z,75.43
2018-04-25T02:50:25.398Z,76.43
2018-04-25T02:52:53.549Z,74.33
2018-04-25T02:55:52.505Z,79.80
2018-04-25T02:58:20.643Z,65.90
2018-04-25T03:00:48.807Z,74.57
2018-04-25T03:03:28.516Z,75.50
2018-04-25T03:06:09.934Z,78.97
2018-04-25T03:08:51.411Z,81.83
2018-04-25T03:11:19.571Z,76.30
2018-04-25T03:13:58.807Z,91.70
2018-04-25T03:16:37.982Z,90.27
2018-04-25T03:19:06.153Z,99.67
2018-04-25T03:21:34.304Z,82.03
2018-04-25T03:27:01.803Z,95.13
2018-04-25T03:29:30.031Z,95.67
2018-04-25T03:32:10.274Z,88.53
2018-04-25T03:35:16.589Z,90.93
2018-04-25T03:37:44.743Z,85.90
2018-04-25T03:40:12.962Z,83.40
2018-04-25T03:42:41.112Z,77.93
2018-04-25T03:48:28.702Z,81.53
2018-04-25T03:50:56.854Z,76.03
2018-04-25T03:53:25.048Z,77.07
2018-04-25T03:56:17.758Z,79.30
2018-04-25T03:58:45.997Z,65.40
2018-04-25T04:01:14.151Z,67.63
2018-04-25T04:03:42.298Z,72.67
2018-04-25T04:06:10.461Z,62.33
2018-04-25T04:08:38.620Z,68.53
2018-04-25T04:11:06.806Z,59.63
2018-04-25T04:13:34.951Z,53.90
2018-04-25T04:16:16.447Z,66.77
2018-04-25T04:18:44.610Z,51.80
2018-04-25T04:21:12.823Z,58.17
2018-04-25T04:23:41.014Z,59.93
2018-04-25T04:29:27.513Z,53.77
2018-04-25T04:31:55.844Z,59.10
2018-04-25T04:34:24.747Z,51.77
2018-04-25T04:37:18.943Z,49.70
2018-04-25T04:39:47.111Z,53.63
2018-04-25T04:42:15.324Z,45.90
2018-04-25T04:44:43.502Z,56.83
2018-04-25T04:47:12.042Z,55.57
2018-04-25T04:49:40.378Z,46.13
2018-04-25T04:52:08.563Z,43.90
2018-04-25T04:54:55.818Z,46.90
2018-04-25T04:57:23.987Z,44.97
2018-04-25T05:00:05.235Z,56.00
2018-04-25T05:02:45.670Z,43.83
2018-04-25T05:05:19.581Z,52.30
2018-04-25T05:10:58.343Z,45.53
2018-04-25T05:13:32.268Z,39.10
2018-04-25T05:16:17.453Z,46.60
2018-04-25T05:18:45.657Z,37.63
2018-04-25T05:21:13.835Z,38.17
2018-04-25T05:23:42.003Z,42.00
2018-04-25T05:26:10.289Z,39.70
2018-04-25T05:28:57.485Z,35.37
2018-04-25T05:31:25.686Z,39.87
2018-04-25T05:33:54.607Z,33.57
2018-04-25T05:36:22.748Z,37.13
2018-04-25T05:38:50.929Z,36.20
2018-04-25T05:41:21.626Z,34.20
2018-04-25T05:43:49.819Z,34.87
2018-04-25T05:46:17.975Z,32.53
2018-04-25T05:48:46.211Z,33.97
2018-04-25T05:51:14.439Z,30.90
2018-04-25T05:53:43.378Z,33.07
2018-04-25T05:56:16.262Z,31.27
2018-04-25T05:58:44.516Z,31.47
2018-04-25T06:01:12.724Z,35.13
2018-04-25T06:06:41.216Z,38.03
2018-04-25T06:09:09.456Z,37.50
2018-04-25T06:20:47.780Z,33.77
2018-04-25T06:23:15.910Z,33.70
2018-04-25T06:25:44.085Z,37.93
2018-04-25T06:28:12.260Z,32.50
2018-04-25T06:30:40.523Z,23.80
2018-04-25T06:33:08.672Z,27.87
2018-04-25T06:35:36.828Z,29.73
2018-04-25T06:38:05.776Z,28.57
2018-04-25T06:40:34.149Z,28.27
2018-04-25T06:46:13.865Z,22.03
2018-04-25T06:48:42.023Z,22.80
2018-04-25T06:51:10.246Z,25.37
2018-04-25T06:54:11.586Z,25.57
2018-04-25T06:56:44.779Z,23.97
2018-04-25T06:59:12.896Z,28.50
2018-04-25T07:08:14.268Z,24.07
2018-04-25T07:20:17.392Z,15.80
2018-04-25T07:22:45.594Z,16.23
2018-04-25T07:25:13.785Z,15.67
2018-04-25T07:27:41.975Z,12.63
2018-04-25T07:30:10.193Z,11.47
2018-04-25T07:32:38.620Z,9.57
2018-04-25T07:35:08.381Z,18.17
2018-04-25T07:37:36.631Z,6.70
2018-04-25T07:40:23.980Z,8.87
2018-04-25T07:42:52.667Z,7.17
2018-04-25T07:45:21.016Z,5.20
2018-04-25T07:47:49.224Z,5.00
2018-04-25T07:50:17.622Z,4.17
2018-04-25T07:52:45.807Z,4.53
2018-04-25T07:55:13.965Z,5.63
2018-04-25T07:57:42.267Z,4.30
2018-04-25T08:00:16.962Z,4.17
2018-04-25T08:02:45.248Z,4.40
2018-04-25T08:05:13.481Z,5.07
2018-04-25T08:14:21.947Z,6.30
2018-04-25T08:17:08.608Z,2.90
2018-04-25T08:19:54.635Z,3.50
2018-04-25T08:22:23.662Z,2.93
2018-04-25T08:24:51.807Z,4.60
2018-04-25T08:27:19.980Z,3.30
2018-04-25T08:29:49.525Z,7.90
2018-04-25T08:32:17.726Z,6.37
2018-04-25T08:34:45.888Z,8.10
2018-04-25T08:37:14.163Z,4.80
2018-04-25T08:39:42.322Z,5.73
2018-04-25T08:42:10.676Z,6.07
2018-04-25T08:44:52.299Z,13.20
2018-04-25T08:47:20.504Z,4.77
2018-04-25T08:50:12.681Z,5.80
2018-04-25T08:52:40.993Z,5.50
2018-04-25T08:55:09.231Z,6.70
2018-04-25T08:57:37.374Z,4.07
2018-04-25T09:00:11.707Z,6.40
2018-04-25T09:02:54.166Z,8.37
2018-04-25T09:05:22.313Z,7.70
2018-04-25T09:08:03.958Z,4.50
2018-04-25T09:10:32.164Z,6.33
2018-04-25T09:13:00.411Z,3.77
2018-04-25T09:15:56.556Z,4.43
2018-04-25T09:18:24.822Z,4.00
2018-04-25T09:20:52.959Z,6.73
2018-04-25T09:23:21.169Z,3.27
2018-04-25T09:25:49.327Z,11.73
2018-04-25T09:28:17.504Z,3.93
2018-04-25T09:30:45.687Z,4.50
2018-04-25T09:33:13.878Z,5.20
2018-04-25T09:35:42.195Z,5.87
2018-04-25T09:44:32.949Z,2.90
2018-04-25T09:47:05.014Z,4.80
2018-04-25T09:52:35.549Z,5.97
2018-04-25T09:55:08.524Z,4.70
2018-04-25T09:57:37.494Z,4.83
2018-04-25T10:00:05.695Z,3.33
2018-04-25T10:02:33.920Z,5.27
2018-04-25T10:10:00.608Z,7.20
2018-04-25T10:28:17.143Z,11.53
2018-04-25T10:38:03.668Z,3.53
2018-04-25T10:40:37.383Z,4.07
2018-04-25T10:49:29.470Z,3.87
2018-04-25T10:58:35.464Z,5.50
2018-04-25T11:01:05.711Z,1.90
2018-04-25T11:06:37.348Z,1.20
2018-04-25T11:09:05.754Z,3.37
2018-04-25T11:11:35.579Z,1.83
2018-04-25T11:29:44.843Z,2.30
2018-04-25T11:32:15.574Z,1.30
2018-04-25T11:34:44.409Z,5.40
2018-04-25T11:39:56.105Z,5.53
2018-04-25T11:42:24.251Z,4.00
2018-04-25T11:44:52.385Z,6.57
2018-04-25T11:47:20.598Z,1.87
2018-04-25T11:49:48.701Z,3.97
2018-04-25T11:52:17.601Z,3.23
2018-04-25T11:54:46.504Z,1.67
2018-04-25T11:57:15.390Z,1.40
2018-04-25T11:59:44.313Z,3.97
2018-04-25T12:02:12.511Z,9.20
2018-04-25T12:04:42.758Z,7.30
2018-04-25T12:07:12.658Z,3.13
2018-04-25T12:09:41.054Z,19.50
2018-04-25T12:12:10.591Z,7.10
2018-04-25T12:14:41.854Z,5.30
2018-04-25T12:17:11.416Z,11.40
2018-04-25T12:19:39.658Z,4.33
2018-04-25T12:22:07.860Z,1.53
2018-04-25T12:24:40.684Z,6.50
2018-04-25T12:27:10.625Z,4.80
2018-04-25T12:30:09.806Z,14.53
2018-04-25T12:32:37.957Z,3.37
2018-04-25T12:35:06.610Z,4.73
2018-04-25T12:37:35.574Z,1.73
2018-04-25T12:40:03.749Z,8.33
2018-04-25T12:42:32.979Z,5.30
2018-04-25T12:45:01.638Z,5.47
2018-04-25T12:47:43.671Z,6.37
2018-04-25T12:50:11.875Z,2.97
2018-04-25T12:52:40.028Z,3.73
2018-04-25T12:55:09.531Z,6.20
2018-04-25T12:57:45.768Z,3.30
2018-04-25T13:00:17.190Z,10.77
2018-04-25T13:03:00.331Z,7.60
2018-04-25T13:08:28.362Z,3.53
2018-04-25T13:10:56.741Z,4.00
2018-04-25T13:16:29.744Z,6.73
2018-04-25T13:22:19.094Z,10.43
2018-04-25T13:24:50.630Z,10.57
2018-04-25T13:27:20.111Z,9.20
2018-04-25T13:29:48.536Z,5.03
2018-04-25T13:32:35.541Z,3.60
2018-04-25T13:35:06.287Z,7.30
2018-04-25T13:37:34.616Z,2.90
2018-04-25T13:40:02.785Z,6.27
2018-04-25T13:42:54.535Z,2.57
2018-04-25T13:45:28.011Z,5.77
2018-04-25T13:58:26.538Z,3.57
2018-04-25T14:01:03.024Z,3.47
2018-04-25T14:03:41.453Z,7.57
2018-04-25T14:06:12.787Z,6.60
2018-04-25T14:08:42.158Z,3.43
2018-04-25T14:11:11.263Z,2.50
2018-04-25T14:13:48.552Z,5.23
2018-04-25T14:19:45.999Z,4.70
2018-04-25T14:27:54.982Z,3.83
2018-04-25T14:30:23.200Z,3.37
2018-04-25T14:32:58.820Z,3.40
2018-04-25T14:35:27.209Z,1.50
2018-04-25T14:37:55.364Z,3.40
2018-04-25T14:43:02.672Z,2.40
2018-04-25T14:51:09.591Z,3.10
2018-04-25T14:53:37.767Z,2.77
2018-04-25T14:59:05.801Z,3.93
2018-04-25T15:01:34.834Z,6.53
2018-04-25T15:04:03.000Z,1.33
2018-04-25T15:06:31.189Z,5.10
2018-04-25T15:08:59.365Z,6.90
2018-04-25T15:14:43.335Z,7.50
2018-04-25T15:17:11.796Z,1.97
2018-04-25T15:19:42.247Z,8.83
2018-04-25T15:25:20.298Z,2.83
2018-04-25T15:27:49.247Z,4.17
2018-04-25T15:30:39.020Z,1.80
2018-04-25T15:36:10.908Z,2.20
2018-04-25T15:39:11.510Z,2.33
2018-04-25T15:44:37.246Z,4.23
2018-04-25T15:47:12.095Z,4.87
2018-04-25T15:49:40.383Z,2.27
2018-04-25T15:52:08.619Z,6.87
2018-04-25T15:54:37.732Z,3.50
2018-04-25T15:57:05.915Z,3.40
2018-04-25T15:59:34.084Z,6.77
2018-04-25T16:02:02.248Z,4.90
2018-04-25T16:04:30.450Z,2.33
2018-04-25T16:06:58.614Z,4.50
2018-04-25T16:09:26.789Z,5.63
2018-04-25T16:11:55.015Z,2.67
2018-04-25T16:14:25.487Z,3.70
2018-04-25T16:16:53.733Z,3.13
2018-04-25T16:19:21.904Z,2.20
2018-04-25T16:21:50.111Z,3.17
2018-04-25T16:24:18.271Z,3.53
2018-04-25T16:26:46.434Z,2.90
2018-04-25T16:32:06.096Z,3.53
2018-04-25T16:34:51.427Z,1.40
2018-04-25T16:43:07.464Z,3.83
2018-04-25T16:45:35.649Z,3.37
2018-04-25T16:51:07.170Z,5.43
2018-04-25T16:53:56.515Z,4.40
2018-04-25T16:56:25.430Z,5.27
2018-04-25T16:58:53.559Z,3.33
2018-04-25T17:04:18.562Z,2.33
2018-04-25T17:06:46.717Z,4.93
2018-04-25T17:09:14.948Z,1.90
2018-04-25T17:11:43.084Z,2.57
2018-04-25T17:14:11.231Z,3.83
2018-04-25T17:16:39.459Z,7.67
2018-04-25T17:19:08.593Z,3.57
2018-04-25T17:21:36.849Z,1.10
2018-04-25T17:24:05.048Z,2.10
2018-04-25T17:26:33.257Z,4.20
2018-04-25T17:29:01.439Z,4.17
2018-04-25T17:31:29.614Z,2.20
2018-04-25T17:33:57.811Z,2.60
2018-04-25T17:36:26.831Z,2.60
2018-04-25T17:38:54.993Z,4.40
2018-04-25T17:41:23.186Z,2.93
2018-04-25T17:43:51.437Z,3.10
2018-04-25T17:46:19.584Z,4.90
2018-04-25T17:48:48.527Z,2.13
2018-04-25T17:51:19.586Z,2.90
2018-04-25T17:53:47.757Z,3.43
2018-04-25T17:56:15.959Z,4.27
2018-04-25T17:58:44.993Z,8.10
2018-04-25T18:01:13.199Z,7.73
2018-04-25T18:03:41.400Z,3.53
2018-04-25T18:06:09.679Z,4.30
2018-04-25T18:08:47.512Z,2.10
2018-04-25T18:11:15.737Z,4.60
2018-04-25T18:13:43.948Z,2.50
2018-04-25T18:16:12.118Z,4.07
2018-04-25T18:18:40.363Z,2.77
2018-04-25T18:21:09.641Z,5.83
2018-04-25T18:23:37.978Z,3.53
2018-04-25T18:26:06.190Z,3.20
2018-04-25T18:28:34.377Z,2.30
2018-04-25T18:31:08.847Z,1.87
2018-04-25T18:33:37.056Z,1.67
2018-04-25T18:59:02.226Z,2.63
2018-04-25T19:04:26.899Z,2.70
2018-04-25T19:10:15.369Z,7.20
2018-04-25T19:12:50.184Z,2.83
2018-04-25T19:15:19.764Z,5.40
2018-04-25T19:18:15.946Z,2.70
2018-04-25T19:20:48.166Z,3.23
2018-04-25T19:23:16.803Z,6.17
2018-04-25T19:25:47.822Z,3.60
2018-04-25T19:28:21.197Z,3.63
2018-04-25T19:30:49.945Z,4.13
2018-04-25T19:33:22.633Z,3.77
2018-04-25T19:35:54.217Z,9.10
2018-04-25T19:44:04.166Z,3.80
2018-04-25T19:52:43.949Z,6.53
2018-04-25T19:55:14.711Z,4.23
2018-04-25T19:57:43.368Z,5.30
2018-04-25T20:00:19.307Z,1.93
2018-04-25T20:02:59.532Z,3.00
2018-04-25T20:05:27.876Z,2.10
2018-04-25T20:07:56.159Z,3.40
2018-04-25T20:10:24.455Z,4.67
2018-04-25T20:12:52.806Z,3.90
2018-04-25T20:15:21.114Z,4.40
2018-04-25T20:17:49.366Z,2.83
2018-04-25T20:20:17.517Z,3.90
2018-04-25T20:22:46.534Z,3.07
2018-04-25T20:25:14.684Z,1.90
2018-04-25T20:27:42.851Z,3.20
2018-04-25T20:30:11.025Z,2.47
2018-04-25T20:32:39.168Z,2.37
2018-04-25T20:35:07.370Z,2.47
2018-04-25T20:37:36.341Z,2.70
2018-04-25T20:40:05.595Z,4.17
2018-04-25T20:42:33.756Z,2.33
2018-04-25T20:45:01.924Z,3.97
2018-04-25T20:47:30.514Z,2.97
2018-04-25T20:49:58.700Z,1.97
2018-04-25T20:55:06.507Z,1.87
2018-04-25T20:57:34.683Z,5.13
2018-04-25T21:00:02.917Z,2.97
2018-04-25T21:02:31.192Z,2.50
2018-04-25T21:04:59.250Z,1.80
2018-04-25T21:07:27.451Z,2.20
2018-04-25T21:09:55.595Z,10.50
2018-04-25T21:12:23.820Z,7.20
2018-04-25T21:14:51.967Z,3.50
2018-04-25T21:17:20.220Z,4.23
2018-04-25T21:19:48.321Z,3.00
2018-04-25T21:22:16.504Z,3.37
2018-04-25T21:24:44.670Z,2.47
2018-04-25T21:39:15.201Z,5.53
2018-04-25T21:47:54.597Z,5.07
2018-04-25T21:50:23.562Z,4.63
2018-04-25T21:56:15.267Z,8.73
2018-04-25T21:59:13.737Z,6.40
2018-04-25T22:01:52.635Z,6.30
2018-04-25T22:04:34.365Z,11.37
2018-04-25T22:07:02.656Z,9.03
2018-04-25T22:09:31.029Z,5.33
2018-04-25T22:11:59.302Z,6.40
2018-04-25T22:14:47.946Z,9.23
2018-04-25T22:17:39.703Z,7.20
2018-04-25T22:20:25.599Z,9.87
2018-04-25T22:22:59.592Z,6.50
2018-04-25T22:25:33.798Z,9.57
2018-04-25T22:34:15.000Z,6.10
2018-04-25T22:57:52.562Z,9.53
2018-04-25T23:06:26.870Z,11.77
2018-04-25T23:15:19.610Z,13.10
2018-04-25T23:30:06.353Z,9.07
2018-04-25T23:32:57.072Z,9.70
2018-04-25T23:35:27.961Z,12.53
2018-04-25T23:37:56.153Z,10.90
2018-04-25T23:40:24.330Z,14.60
2018-04-25T23:42:53.265Z,10.27
2018-04-25T23:54:51.281Z,16.40
